createdAt,value
2023-04-02T07:21:11.634Z,6.60
2023-04-02T07:23:40.463Z,6.50
2023-04-02T07:26:14.085Z,6.50
2023-04-02T07:28:42.454Z,6.60
2023-04-02T07:31:17.777Z,6.50
2023-04-02T07:33:46.371Z,6.50
2023-04-02T07:36:17.873Z,6.50
2023-04-02T07:38:46.348Z,6.50
2023-04-02T07:41:14.485Z,6.50
2023-04-02T07:43:43.445Z,6.50
2023-04-02T07:46:14.096Z,6.50
2023-04-02T07:48:42.260Z,6.50
2023-04-02T07:51:18.965Z,6.40
2023-04-02T07:53:50.230Z,6.40
2023-04-02T07:56:22.189Z,6.50
2023-04-02T07:58:57.143Z,6.50
2023-04-02T08:01:28.186Z,6.40
2023-04-02T08:03:58.098Z,6.50
2023-04-02T08:06:28.890Z,6.60
2023-04-02T08:08:57.350Z,6.50
2023-04-02T08:11:25.941Z,6.50
2023-04-02T08:13:54.231Z,6.50
2023-04-02T08:16:23.868Z,6.50
2023-04-02T08:18:52.315Z,6.40
2023-04-02T08:21:21.340Z,6.40
2023-04-02T08:23:51.990Z,6.50
2023-04-02T08:26:20.183Z,6.50
2023-04-02T08:28:48.538Z,6.50
2023-04-02T08:31:17.155Z,6.50
2023-04-02T08:33:45.446Z,6.50
2023-04-02T08:36:17.728Z,6.40
2023-04-02T08:38:48.841Z,6.40
2023-04-02T08:41:27.550Z,6.30
2023-04-02T08:44:10.998Z,6.40
2023-04-02T08:46:45.553Z,6.40
2023-04-02T08:49:17.809Z,6.40
2023-04-02T08:51:48.586Z,6.40
2023-04-02T08:54:22.775Z,6.40
2023-04-02T08:56:56.363Z,6.50
2023-04-02T08:59:31.891Z,6.50
2023-04-02T09:02:22.234Z,6.50
2023-04-02T09:04:51.494Z,6.50
2023-04-02T09:07:20.131Z,6.60
2023-04-02T09:09:49.868Z,6.70
2023-04-02T09:12:21.121Z,6.80
2023-04-02T09:15:00.790Z,6.90
2023-04-02T09:17:31.179Z,7.00
2023-04-02T09:20:08.959Z,6.90
2023-04-02T09:22:38.490Z,6.80
2023-04-02T09:25:12.879Z,6.80
2023-04-02T09:27:42.452Z,6.80
2023-04-02T09:30:23.058Z,6.80
2023-04-02T09:32:53.529Z,6.80
2023-04-02T09:35:26.662Z,6.80
2023-04-02T09:38:24.517Z,6.70
2023-04-02T09:41:00.230Z,6.80
2023-04-02T09:43:31.230Z,6.80
2023-04-02T09:46:02.624Z,6.70
2023-04-02T09:48:33.931Z,6.80
2023-04-02T09:51:07.764Z,6.90
2023-04-02T09:53:39.877Z,6.90
2023-04-02T09:56:15.079Z,6.90
2023-04-02T09:58:47.408Z,6.90
2023-04-02T10:01:29.486Z,6.90
2023-04-02T10:03:59.391Z,6.80
2023-04-02T10:06:30.353Z,6.80
2023-04-02T10:08:59.016Z,6.80
2023-04-02T10:11:43.742Z,6.80
2023-04-02T10:14:21.087Z,6.90
2023-04-02T10:16:53.405Z,6.80
2023-04-02T10:19:28.253Z,6.80
2023-04-02T10:21:58.585Z,6.80
2023-04-02T10:24:29.422Z,6.90
2023-04-02T10:27:17.362Z,6.90
2023-04-02T10:30:11.157Z,7.00
2023-04-02T10:32:46.238Z,7.00
2023-04-02T10:35:22.565Z,7.10
2023-04-02T10:38:16.589Z,7.00
2023-04-02T10:40:49.307Z,7.00
2023-04-02T10:43:40.494Z,7.10
2023-04-02T10:46:19.124Z,6.90
2023-04-02T10:48:55.209Z,7.00
2023-04-02T10:51:33.229Z,7.20
2023-04-02T10:54:09.556Z,7.50
2023-04-02T10:56:50.499Z,7.50
2023-04-02T10:59:24.383Z,7.80
2023-04-02T11:01:56.694Z,8.00
2023-04-02T11:04:28.519Z,7.80
2023-04-02T11:07:13.138Z,7.70
2023-04-02T11:09:45.688Z,7.90
2023-04-02T11:12:21.995Z,7.80
2023-04-02T11:14:51.842Z,8.10
2023-04-02T11:17:22.405Z,8.20
2023-04-02T11:19:50.685Z,8.30
2023-04-02T11:22:21.420Z,8.10
2023-04-02T11:24:51.202Z,8.20
2023-04-02T11:27:30.779Z,8.20
2023-04-02T11:30:05.577Z,8.10
2023-04-02T11:32:42.638Z,8.30
2023-04-02T11:35:28.053Z,8.30
2023-04-02T11:37:58.533Z,8.40
2023-04-02T11:40:49.993Z,8.40
2023-04-02T11:43:50.070Z,8.20
2023-04-02T11:46:49.026Z,8.00
2023-04-02T11:49:38.352Z,7.90
2023-04-02T11:52:23.177Z,8.00
2023-04-02T11:55:04.150Z,8.00
2023-04-02T11:58:26.324Z,8.00
2023-04-02T12:01:22.439Z,7.90
2023-04-02T12:04:17.744Z,7.70
2023-04-02T12:07:01.405Z,7.70
2023-04-02T12:09:32.635Z,7.60
2023-04-02T12:12:03.076Z,7.70
2023-04-02T12:14:43.287Z,7.80
2023-04-02T12:17:19.338Z,7.90
2023-04-02T12:19:52.625Z,7.90
2023-04-02T12:22:25.681Z,7.90
2023-04-02T12:24:56.990Z,7.90
2023-04-02T12:27:27.902Z,7.90
2023-04-02T12:29:57.220Z,7.80
2023-04-02T12:32:29.807Z,7.70
2023-04-02T12:35:01.619Z,7.70
2023-04-02T12:37:32.169Z,7.60
2023-04-02T12:40:06.685Z,7.60
2023-04-02T12:42:36.558Z,7.50
2023-04-02T12:45:06.886Z,7.50
2023-04-02T12:47:35.429Z,7.50
2023-04-02T12:50:03.990Z,7.30
2023-04-02T12:52:33.640Z,7.40
2023-04-02T12:55:03.779Z,7.50
2023-04-02T12:57:36.390Z,7.60
2023-04-02T13:00:35.000Z,7.70
2023-04-02T13:03:19.919Z,7.60
2023-04-02T13:05:52.319Z,7.60
2023-04-02T13:08:24.312Z,7.60
2023-04-02T13:10:57.781Z,7.60
2023-04-02T13:13:30.506Z,7.70
2023-04-02T13:16:07.394Z,7.80
2023-04-02T13:18:37.975Z,7.60
2023-04-02T13:21:06.504Z,7.70
2023-04-02T13:23:37.603Z,7.70
2023-04-02T13:26:18.374Z,7.70
2023-04-02T13:29:01.053Z,7.40
2023-04-02T13:31:32.088Z,7.50
2023-04-02T13:34:01.748Z,7.50
2023-04-02T13:36:29.936Z,7.50
2023-04-02T13:38:58.379Z,7.60
2023-04-02T13:41:28.808Z,7.70
2023-04-02T13:44:00.290Z,7.70
2023-04-02T13:46:32.100Z,7.70
2023-04-02T13:49:00.447Z,7.70
2023-04-02T13:51:37.318Z,7.80
2023-04-02T13:54:11.815Z,7.90
2023-04-02T13:56:41.388Z,7.90
2023-04-02T13:59:09.463Z,7.90
2023-04-02T14:01:39.699Z,7.60
2023-04-02T14:04:09.028Z,7.60
2023-04-02T14:07:03.202Z,7.60
2023-04-02T14:09:41.842Z,7.60
2023-04-02T14:12:18.630Z,7.40
2023-04-02T14:15:06.567Z,7.60
2023-04-02T14:17:47.802Z,7.70
2023-04-02T14:20:32.282Z,7.60
2023-04-02T14:23:26.541Z,7.60
2023-04-02T14:26:02.342Z,7.40
2023-04-02T14:28:41.921Z,7.30
2023-04-02T14:31:21.059Z,7.40
2023-04-02T14:33:58.886Z,7.60
2023-04-02T14:36:36.277Z,7.60
2023-04-02T14:39:10.261Z,7.50
2023-04-02T14:41:47.320Z,7.40
2023-04-02T14:44:18.184Z,7.30
2023-04-02T14:46:46.870Z,7.40
2023-04-02T14:49:25.532Z,7.50
2023-04-02T14:51:58.717Z,7.60
2023-04-02T14:54:34.620Z,7.60
2023-04-02T14:57:11.356Z,7.60
2023-04-02T14:59:50.622Z,7.60
2023-04-02T15:02:25.365Z,7.60
2023-04-02T15:05:01.643Z,7.70
2023-04-02T15:07:37.170Z,7.70
2023-04-02T15:10:10.270Z,7.50
2023-04-02T15:12:41.911Z,7.50
2023-04-02T15:15:29.769Z,7.50
2023-04-02T15:18:09.953Z,7.50
2023-04-02T15:20:47.092Z,7.50
2023-04-02T15:23:23.760Z,7.30
2023-04-02T15:26:01.688Z,7.10
2023-04-02T15:28:34.658Z,7.10
2023-04-02T15:31:07.899Z,7.20
2023-04-02T15:33:46.682Z,7.20
2023-04-02T15:36:49.739Z,7.10
2023-04-02T15:39:42.895Z,7.30
2023-04-02T15:42:18.936Z,7.30
2023-04-02T15:45:10.758Z,7.30
2023-04-02T15:47:46.750Z,7.40
2023-04-02T15:50:36.299Z,7.30
2023-04-02T15:53:18.649Z,7.40
2023-04-02T15:55:50.881Z,7.50
2023-04-02T15:58:26.212Z,7.40
2023-04-02T16:01:04.650Z,7.50
2023-04-02T16:03:49.727Z,7.50
2023-04-02T16:06:27.977Z,7.50
2023-04-02T16:09:18.986Z,7.60
2023-04-02T16:11:47.287Z,7.70
2023-04-02T16:14:25.944Z,7.70
2023-04-02T16:16:58.917Z,7.80
2023-04-02T16:19:33.430Z,7.70
2023-04-02T16:22:06.658Z,7.70
2023-04-02T16:24:36.374Z,7.70
2023-04-02T16:27:18.459Z,7.70
2023-04-02T16:30:02.072Z,7.70
2023-04-02T16:32:57.637Z,7.70
2023-04-02T16:38:16.492Z,7.50
2023-04-02T16:41:06.775Z,7.40
2023-04-02T16:43:49.263Z,7.40
2023-04-02T16:46:38.396Z,7.40
2023-04-02T16:49:24.577Z,7.40
2023-04-02T16:52:00.525Z,7.40
2023-04-02T16:54:32.310Z,7.50
2023-04-02T16:57:19.663Z,7.50
2023-04-02T16:59:58.285Z,7.70
2023-04-02T17:02:39.880Z,7.80
2023-04-02T17:05:20.925Z,7.80
2023-04-02T17:08:01.639Z,7.60
2023-04-02T17:10:32.953Z,7.60
2023-04-02T17:13:14.652Z,7.50
2023-04-02T17:15:46.856Z,7.40
2023-04-02T17:18:18.608Z,7.40
2023-04-02T17:20:47.837Z,7.30
2023-04-02T17:23:17.379Z,7.30
2023-04-02T17:25:51.943Z,7.20
2023-04-02T17:28:26.367Z,7.10
2023-04-02T17:30:58.189Z,7.10
2023-04-02T17:33:28.435Z,7.00
2023-04-02T17:36:22.418Z,6.90
2023-04-02T17:39:03.566Z,6.80
2023-04-02T17:41:39.702Z,6.80
2023-04-02T17:44:24.638Z,6.70
2023-04-02T17:47:01.289Z,6.60
2023-04-02T17:49:41.260Z,6.50
2023-04-02T17:52:17.043Z,6.40
2023-04-02T17:54:53.905Z,6.40
2023-04-02T17:57:36.434Z,6.20
2023-04-02T18:00:19.867Z,6.20
2023-04-02T18:03:02.947Z,6.10
2023-04-02T18:05:36.410Z,6.00
2023-04-02T18:08:14.634Z,5.90
2023-04-02T18:10:52.954Z,5.80
2023-04-02T18:13:32.472Z,5.70
2023-04-02T18:16:17.488Z,5.70
2023-04-02T18:19:10.141Z,5.70
2023-04-02T18:21:46.433Z,5.60
2023-04-02T18:24:42.678Z,5.40
2023-04-02T18:27:23.929Z,5.40
2023-04-02T18:30:01.422Z,5.30
2023-04-02T18:32:56.650Z,5.20
2023-04-02T18:35:28.620Z,5.10
2023-04-02T18:38:14.501Z,5.00
2023-04-02T18:40:51.945Z,4.90
2023-04-02T18:43:34.106Z,4.80
2023-04-02T18:46:12.841Z,4.70
2023-04-02T18:48:47.398Z,4.60
2023-04-02T18:51:19.804Z,4.50
2023-04-02T18:53:48.505Z,4.40
2023-04-02T18:56:19.787Z,4.30
2023-04-02T18:58:57.102Z,4.30
2023-04-02T19:01:31.783Z,4.10
2023-04-02T19:04:07.107Z,4.00
2023-04-02T19:06:38.125Z,3.90
2023-04-02T19:09:13.543Z,3.80
2023-04-02T19:11:42.049Z,3.80
2023-04-02T19:14:14.503Z,3.70
2023-04-02T19:17:03.589Z,3.70
2023-04-02T19:19:39.696Z,3.60
2023-04-02T19:22:16.833Z,3.60
2023-04-02T19:25:14.810Z,3.50
2023-04-02T19:28:02.004Z,3.40
2023-04-02T19:30:50.117Z,3.30
2023-04-02T19:33:41.273Z,3.30
2023-04-02T19:36:22.326Z,3.20
2023-04-02T19:39:01.886Z,3.10
2023-04-02T19:41:35.432Z,3.10
2023-04-02T19:44:04.019Z,3.10
2023-04-02T19:46:32.317Z,3.00
2023-04-02T19:49:06.351Z,2.90
2023-04-02T19:51:36.091Z,2.90
2023-04-02T19:54:04.747Z,2.90
2023-04-02T19:56:33.238Z,2.80
2023-04-02T19:59:07.837Z,2.80
2023-04-02T20:01:45.301Z,2.70
2023-04-02T20:04:13.596Z,2.70
2023-04-02T20:06:43.170Z,2.60
2023-04-02T20:09:11.929Z,2.60
2023-04-02T20:11:40.601Z,2.50
2023-04-02T20:14:08.934Z,2.50
2023-04-02T20:16:38.870Z,2.40
2023-04-02T20:19:07.365Z,2.40
2023-04-02T20:21:38.455Z,2.40
2023-04-02T20:24:09.417Z,2.30
2023-04-02T20:26:37.764Z,2.30
2023-04-02T20:29:06.390Z,2.30
2023-04-02T20:31:35.351Z,2.30
2023-04-02T20:34:06.639Z,2.30
2023-04-02T20:36:34.963Z,2.40
2023-04-02T20:39:03.800Z,2.40
2023-04-02T20:41:33.421Z,2.40
2023-04-02T20:44:02.107Z,2.30
2023-04-02T20:46:30.601Z,2.30
2023-04-02T20:48:58.759Z,2.20
2023-04-02T20:51:26.997Z,2.10
2023-04-02T20:53:55.538Z,2.10
2023-04-02T20:56:24.366Z,2.00
2023-04-02T20:58:53.903Z,2.00
2023-04-02T21:01:24.148Z,1.90
2023-04-02T21:03:56.280Z,1.90
2023-04-02T21:06:27.031Z,1.80
2023-04-02T21:08:55.380Z,1.80
2023-04-02T21:11:24.080Z,1.70
2023-04-02T21:13:53.804Z,1.70
2023-04-02T21:16:23.758Z,1.70
2023-04-02T21:18:54.700Z,1.60
2023-04-02T21:21:23.635Z,1.60
2023-04-02T21:23:56.327Z,1.50
2023-04-02T21:26:24.940Z,1.40
2023-04-02T21:28:55.053Z,1.40
2023-04-02T21:31:27.239Z,1.30
2023-04-02T21:33:56.939Z,1.40
2023-04-02T21:36:28.339Z,1.40
2023-04-02T21:38:58.400Z,1.30
2023-04-02T21:41:28.752Z,1.30
2023-04-02T21:44:00.220Z,1.30
2023-04-02T21:46:31.197Z,1.30
2023-04-02T21:49:00.817Z,1.20
2023-04-02T21:51:31.358Z,1.20
2023-04-02T21:54:00.371Z,1.20
2023-04-02T21:56:30.244Z,1.10
2023-04-02T21:59:02.134Z,1.10
2023-04-02T22:01:32.856Z,1.10
2023-04-02T22:04:03.551Z,1.10
2023-04-02T22:06:34.157Z,1.10
2023-04-02T22:09:05.372Z,1.10
2023-04-02T22:11:35.752Z,1.00
2023-04-02T22:14:07.028Z,1.00
2023-04-02T22:16:36.443Z,1.00
2023-04-02T22:19:06.999Z,1.00
2023-04-02T22:21:36.190Z,1.00
2023-04-02T22:24:06.395Z,1.00
2023-04-02T22:26:35.167Z,1.00
2023-04-02T22:29:05.451Z,1.00
2023-04-02T22:31:35.059Z,1.00
2023-04-02T22:34:05.777Z,0.90
2023-04-02T22:36:35.248Z,0.90
2023-04-02T22:39:05.614Z,0.90
2023-04-02T22:41:34.541Z,0.90
2023-04-02T22:44:05.367Z,0.80
2023-04-02T22:46:34.551Z,0.80
2023-04-02T22:49:03.230Z,0.80
2023-04-02T22:51:31.695Z,0.70
2023-04-02T22:53:59.870Z,0.70
2023-04-02T22:56:32.136Z,0.70
2023-04-02T22:59:00.896Z,0.70
2023-04-02T23:01:33.100Z,0.60
2023-04-02T23:04:01.548Z,0.60
2023-04-02T23:06:30.450Z,0.60
2023-04-02T23:08:58.726Z,0.60
2023-04-02T23:11:28.605Z,0.50
2023-04-02T23:13:58.607Z,0.50
2023-04-02T23:16:28.814Z,0.50
2023-04-02T23:18:59.137Z,0.50
2023-04-02T23:21:27.965Z,0.50
2023-04-02T23:23:56.334Z,0.50
2023-04-02T23:26:27.752Z,0.50
2023-04-02T23:28:56.238Z,0.50
2023-04-02T23:31:25.244Z,0.40
2023-04-02T23:33:57.950Z,0.40
2023-04-02T23:36:29.127Z,0.40
2023-04-02T23:38:59.713Z,0.40
2023-04-02T23:41:28.538Z,0.40
2023-04-02T23:43:57.930Z,0.40
2023-04-02T23:46:26.398Z,0.30
2023-04-02T23:48:55.654Z,0.30
2023-04-02T23:51:25.994Z,0.30
2023-04-02T23:53:55.614Z,0.30
2023-04-02T23:56:24.316Z,0.30
2023-04-02T23:58:53.027Z,0.30
